createdAt,value
2019-01-27T00:01:46.834Z,13.17
2019-01-27T00:06:52.296Z,13.97
2019-01-27T00:11:58.166Z,13.70
2019-01-27T00:17:03.997Z,14.47
2019-01-27T00:22:09.790Z,14.37
2019-01-27T00:27:15.811Z,12.80
2019-01-27T00:32:21.230Z,13.50
2019-01-27T00:37:26.645Z,12.80
2019-01-27T00:42:32.759Z,13.13
2019-01-27T00:47:38.873Z,13.20
2019-01-27T00:52:44.622Z,13.37
2019-01-27T00:57:50.034Z,12.10
2019-01-27T01:02:55.912Z,12.00
2019-01-27T01:08:01.302Z,12.07
2019-01-27T01:13:07.206Z,12.17
2019-01-27T01:18:12.618Z,11.70
2019-01-27T01:23:18.378Z,11.90
2019-01-27T01:28:24.108Z,12.10
2019-01-27T01:33:30.261Z,10.73
2019-01-27T01:38:35.726Z,11.57
2019-01-27T01:43:41.506Z,11.17
2019-01-27T01:48:47.262Z,11.63
2019-01-27T01:53:53.042Z,10.47
2019-01-27T01:58:58.815Z,11.37
2019-01-27T02:04:04.234Z,10.63
2019-01-27T02:09:11.654Z,10.50
2019-01-27T02:14:17.062Z,10.13
2019-01-27T02:19:22.823Z,11.47
2019-01-27T02:24:28.247Z,10.90
2019-01-27T02:29:34.047Z,11.10
2019-01-27T02:34:39.906Z,10.27
2019-01-27T02:39:46.350Z,9.77
2019-01-27T02:44:51.750Z,9.90
2019-01-27T02:49:57.539Z,10.17
2019-01-27T02:55:03.314Z,10.23
2019-01-27T03:00:09.042Z,10.30
2019-01-27T03:06:18.251Z,9.23
2019-01-27T03:11:24.352Z,8.80
2019-01-27T03:16:30.487Z,8.23
2019-01-27T03:21:35.912Z,8.07
2019-01-27T03:26:41.422Z,7.93
2019-01-27T03:31:47.520Z,7.67
2019-01-27T03:36:53.597Z,7.73
2019-01-27T03:41:59.172Z,7.90
2019-01-27T03:47:04.574Z,7.13
2019-01-27T03:52:09.978Z,8.10
2019-01-27T03:57:15.386Z,8.50
2019-01-27T04:02:21.459Z,8.00
2019-01-27T04:07:27.207Z,8.43
2019-01-27T04:12:32.852Z,7.23
2019-01-27T04:17:38.286Z,7.83
2019-01-27T04:22:44.023Z,8.30
2019-01-27T04:27:49.415Z,6.93
2019-01-27T04:32:55.076Z,7.47
2019-01-27T04:38:00.851Z,6.97
2019-01-27T04:43:06.283Z,6.83
2019-01-27T04:48:12.397Z,6.57
2019-01-27T04:53:18.531Z,7.43
2019-01-27T04:58:23.940Z,6.70
2019-01-27T05:03:36.594Z,6.33
2019-01-27T05:08:42.062Z,7.27
2019-01-27T05:13:48.276Z,7.27
2019-01-27T05:18:54.356Z,6.83
2019-01-27T05:23:59.766Z,5.77
2019-01-27T05:29:05.540Z,7.00
2019-01-27T05:34:10.936Z,6.83
2019-01-27T05:39:16.697Z,6.63
2019-01-27T05:44:22.421Z,5.73
2019-01-27T05:49:27.816Z,6.77
2019-01-27T05:54:33.552Z,6.53
2019-01-27T05:59:39.673Z,6.00
2019-01-27T06:04:48.241Z,5.37
2019-01-27T06:09:53.641Z,5.57
2019-01-27T06:14:59.394Z,5.80
2019-01-27T06:20:06.488Z,5.83
2019-01-27T06:25:14.131Z,5.87
2019-01-27T06:30:22.629Z,6.40
2019-01-27T06:35:28.414Z,6.17
2019-01-27T06:40:34.170Z,6.00
2019-01-27T06:45:39.633Z,6.20
2019-01-27T06:50:45.026Z,6.77
2019-01-27T06:55:50.778Z,5.97
2019-01-27T07:01:04.222Z,5.27
2019-01-27T07:06:15.883Z,6.30
2019-01-27T07:11:29.367Z,6.43
2019-01-27T07:16:41.219Z,5.67
2019-01-27T07:21:54.933Z,5.70
2019-01-27T07:29:10.862Z,5.50
2019-01-27T07:34:23.394Z,5.70
2019-01-27T07:39:37.250Z,5.47
2019-01-27T07:44:49.961Z,5.93
2019-01-27T07:52:07.786Z,5.20
2019-01-27T07:57:22.339Z,5.07
2019-01-27T08:02:31.806Z,5.33
2019-01-27T08:07:41.634Z,5.30
2019-01-27T08:13:23.642Z,5.10
2019-01-27T08:18:34.111Z,4.17
2019-01-27T08:23:45.549Z,4.60
2019-01-27T08:28:57.241Z,4.43
2019-01-27T08:34:13.272Z,4.53
2019-01-27T08:39:24.039Z,4.60
2019-01-27T08:44:34.569Z,4.70
2019-01-27T08:49:40.300Z,4.03
2019-01-27T08:54:46.846Z,4.23
2019-01-27T08:59:53.038Z,3.90
2019-01-27T09:05:05.138Z,4.30
2019-01-27T09:11:14.242Z,3.60
2019-01-27T09:16:59.470Z,3.87
2019-01-27T09:22:10.067Z,4.13
2019-01-27T09:27:19.550Z,4.40
2019-01-27T09:32:35.405Z,4.00
2019-01-27T09:37:58.515Z,3.20
2019-01-27T09:43:09.293Z,3.67
2019-01-27T09:48:52.802Z,3.37
2019-01-27T09:54:04.211Z,3.50
2019-01-27T09:59:17.653Z,3.63
2019-01-27T10:04:35.285Z,3.60
2019-01-27T10:09:46.673Z,5.27
2019-01-27T10:15:31.685Z,4.30
2019-01-27T10:20:48.563Z,3.90
2019-01-27T10:26:02.127Z,3.40
2019-01-27T10:31:14.795Z,3.00
2019-01-27T10:36:25.386Z,3.40
2019-01-27T10:41:36.895Z,3.10
2019-01-27T10:46:47.943Z,2.90
2019-01-27T10:51:58.646Z,3.03
2019-01-27T10:57:11.656Z,2.90
2019-01-27T11:02:22.075Z,2.90
2019-01-27T11:07:36.597Z,2.93
2019-01-27T11:12:47.135Z,2.80
2019-01-27T11:17:58.253Z,2.73
2019-01-27T11:23:08.414Z,2.53
2019-01-27T11:28:26.338Z,2.83
2019-01-27T11:33:37.058Z,2.40
2019-01-27T11:38:47.814Z,2.80
2019-01-27T11:44:12.396Z,2.80
2019-01-27T11:49:25.077Z,3.00
2019-01-27T11:54:30.467Z,3.20
2019-01-27T11:59:35.966Z,2.77
2019-01-27T12:04:41.445Z,3.40
2019-01-27T12:09:47.318Z,3.03
2019-01-27T12:14:52.858Z,3.47
2019-01-27T12:19:58.262Z,3.43
2019-01-27T12:25:03.683Z,3.13
2019-01-27T12:30:13.914Z,3.53
2019-01-27T12:35:19.670Z,2.80
2019-01-27T12:40:25.480Z,2.87
2019-01-27T12:45:31.260Z,2.83
2019-01-27T12:50:36.754Z,2.90
2019-01-27T12:55:42.927Z,3.10
2019-01-27T13:01:00.051Z,3.00
2019-01-27T13:06:05.989Z,3.30
2019-01-27T13:11:11.954Z,3.50
2019-01-27T13:16:18.135Z,2.83
2019-01-27T13:21:23.950Z,3.00
2019-01-27T13:26:30.157Z,3.60
2019-01-27T13:31:36.070Z,2.80
2019-01-27T13:36:41.907Z,3.17
2019-01-27T13:41:47.313Z,2.93
2019-01-27T13:46:52.715Z,2.77
2019-01-27T13:51:58.138Z,2.80
2019-01-27T13:57:03.526Z,2.93
2019-01-27T14:02:09.640Z,2.77
2019-01-27T14:07:15.481Z,2.50
2019-01-27T14:12:20.898Z,2.80
2019-01-27T14:17:26.698Z,2.60
2019-01-27T14:22:32.130Z,5.73
2019-01-27T14:27:37.867Z,7.77
2019-01-27T14:32:43.622Z,4.47
2019-01-27T14:37:49.703Z,5.33
2019-01-27T14:42:55.331Z,4.57
2019-01-27T14:48:01.267Z,3.17
2019-01-27T14:53:08.190Z,2.43
2019-01-27T14:58:13.945Z,2.33
2019-01-27T15:03:19.367Z,2.70
2019-01-27T15:08:25.321Z,2.43
2019-01-27T15:13:30.727Z,2.37
2019-01-27T15:18:36.143Z,2.13
2019-01-27T15:23:41.934Z,2.20
2019-01-27T15:28:47.357Z,2.70
2019-01-27T15:33:52.770Z,2.40
2019-01-27T15:38:58.190Z,2.93
2019-01-27T15:44:03.950Z,3.03
2019-01-27T15:49:09.738Z,3.63
2019-01-27T15:54:15.251Z,2.37
2019-01-27T15:59:20.656Z,2.77
2019-01-27T16:04:26.059Z,2.97
2019-01-27T16:09:31.465Z,2.40
2019-01-27T16:14:36.867Z,3.27
2019-01-27T16:19:42.291Z,2.60
2019-01-27T16:24:47.699Z,2.70
2019-01-27T16:29:59.395Z,2.60
2019-01-27T16:35:09.042Z,3.60
2019-01-27T16:40:16.373Z,2.70
2019-01-27T16:45:22.493Z,3.43
2019-01-27T16:50:27.906Z,3.20
2019-01-27T16:55:33.678Z,2.67
2019-01-27T17:00:39.111Z,2.27
2019-01-27T17:05:45.229Z,2.00
2019-01-27T17:10:51.690Z,2.40
2019-01-27T17:15:57.127Z,2.57
2019-01-27T17:21:03.321Z,2.90
2019-01-27T17:26:09.408Z,2.70
2019-01-27T17:31:14.874Z,2.63
2019-01-27T17:36:21.203Z,3.13
2019-01-27T17:41:26.618Z,2.53
2019-01-27T17:46:32.415Z,2.20
2019-01-27T17:51:37.826Z,2.70
2019-01-27T17:56:44.427Z,2.63
2019-01-27T18:01:59.795Z,7.33
2019-01-27T18:08:08.258Z,6.97
2019-01-27T18:13:28.350Z,3.70
2019-01-27T18:18:33.766Z,5.23
2019-01-27T18:23:40.302Z,5.17
2019-01-27T18:28:45.695Z,5.70
2019-01-27T18:33:51.101Z,5.13
2019-01-27T18:38:56.922Z,7.07
2019-01-27T18:44:02.357Z,6.30
2019-01-27T18:49:07.793Z,4.90
2019-01-27T18:54:51.470Z,3.87
2019-01-27T19:00:02.764Z,3.00
2019-01-27T19:05:25.419Z,3.07
2019-01-27T19:10:35.786Z,3.17
2019-01-27T19:15:53.443Z,2.87
2019-01-27T19:21:05.234Z,3.87
2019-01-27T19:26:18.810Z,3.50
2019-01-27T19:31:36.123Z,3.40
2019-01-27T19:36:48.746Z,3.00
2019-01-27T19:42:00.398Z,3.53
2019-01-27T19:47:10.374Z,3.30
2019-01-27T19:52:21.753Z,2.77
2019-01-27T19:57:32.766Z,3.90
2019-01-27T20:02:45.691Z,3.60
2019-01-27T20:08:03.387Z,3.70
2019-01-27T20:13:45.295Z,3.87
2019-01-27T20:18:58.077Z,3.10
2019-01-27T20:24:20.678Z,4.43
2019-01-27T20:30:29.828Z,3.50
2019-01-27T20:35:47.053Z,3.83
2019-01-27T20:40:56.670Z,3.30
2019-01-27T20:46:08.127Z,4.17
2019-01-27T20:51:20.951Z,3.37
2019-01-27T20:56:31.440Z,3.50
2019-01-27T21:01:42.144Z,2.63
2019-01-27T21:06:53.690Z,2.90
2019-01-27T21:14:09.499Z,3.40
2019-01-27T21:19:20.827Z,3.00
2019-01-27T21:24:26.263Z,2.83
2019-01-27T21:29:31.819Z,3.20
2019-01-27T21:34:38.022Z,4.30
2019-01-27T21:39:43.779Z,3.53
2019-01-27T21:44:49.354Z,3.20
2019-01-27T21:49:54.881Z,3.50
2019-01-27T21:55:00.352Z,3.60
2019-01-27T22:00:09.053Z,3.27
2019-01-27T22:05:14.660Z,3.27
2019-01-27T22:10:20.438Z,3.43
2019-01-27T22:15:26.616Z,3.73
2019-01-27T22:20:32.187Z,3.50
2019-01-27T22:25:37.610Z,3.50
2019-01-27T22:30:43.374Z,3.40
2019-01-27T22:35:48.854Z,3.70
2019-01-27T22:40:54.302Z,3.67
2019-01-27T22:45:59.766Z,3.30
2019-01-27T22:51:05.294Z,2.97
2019-01-27T22:56:10.795Z,3.63
2019-01-27T23:01:18.079Z,3.47
2019-01-27T23:06:23.512Z,3.30
2019-01-27T23:11:28.978Z,4.00
2019-01-27T23:16:35.118Z,3.77
2019-01-27T23:21:40.983Z,3.43
2019-01-27T23:26:46.750Z,3.77
2019-01-27T23:31:52.578Z,3.53
2019-01-27T23:36:58.391Z,3.60
2019-01-27T23:42:03.839Z,3.80
2019-01-27T23:47:09.634Z,3.93
2019-01-27T23:52:15.426Z,3.67
2019-01-27T23:57:20.902Z,3.37
